Time;durP1;ratioP1;P1;durP2;ratioP2;P2;SDS_P1;SDS_P2;PMS_P1;PMS_P2;Temp;Humidity;BMP_temperature;BMP_pressure;BME280_temperature;BME280_humidity;BME280_pressure;Samples;Min_cycle;Max_cycle;Signal;HPM_P1;HPM_P2
2022/10/31 00:01:33;;;;;;;1999.90;999.90;;;10.80;99.90;;;;;;5087746;28;20460;-68
2022/10/31 00:04:00;;;;;;;1999.90;999.90;;;10.80;99.90;;;;;;5088121;28;20469;-68
2022/10/31 00:06:28;;;;;;;1999.90;999.90;;;10.70;99.90;;;;;;5087538;28;20446;-68
2022/10/31 00:08:56;;;;;;;1999.90;999.90;;;10.70;99.90;;;;;;5088082;28;20852;-68
2022/10/31 00:11:25;;;;;;;1999.90;999.90;;;10.60;99.90;;;;;;5087595;28;20936;-68
2022/10/31 00:13:51;;;;;;;1999.90;999.90;;;10.70;99.90;;;;;;5087314;28;20651;-68
2022/10/31 00:16:20;;;;;;;1999.90;999.90;;;10.60;99.90;;;;;;5087209;28;21144;-68
2022/10/31 00:18:50;;;;;;;1999.90;999.90;;;10.50;99.90;;;;;;5087490;28;20474;-68
2022/10/31 00:21:16;;;;;;;1999.90;999.90;;;10.50;99.90;;;;;;5087429;28;20446;-68
2022/10/31 00:23:43;;;;;;;1999.90;999.90;;;10.50;99.90;;;;;;5086600;28;20450;-68
2022/10/31 00:26:10;;;;;;;1999.90;999.90;;;10.50;99.90;;;;;;5087507;28;20449;-68
2022/10/31 00:28:38;;;;;;;1999.90;999.90;;;10.50;99.90;;;;;;5087498;28;20466;-68
2022/10/31 00:31:07;;;;;;;1999.90;999.90;;;10.50;99.90;;;;;;5087438;28;20450;-68
2022/10/31 00:33:36;;;;;;;1999.90;999.90;;;10.50;99.90;;;;;;5086695;28;20450;-68
2022/10/31 00:36:03;;;;;;;1999.90;999.90;;;10.50;99.90;;;;;;5089094;28;20447;-68
2022/10/31 00:38:31;;;;;;;1999.90;999.90;;;10.40;99.90;;;;;;5090385;28;20569;-68
2022/10/31 00:40:58;;;;;;;1999.90;999.90;;;10.40;99.90;;;;;;5089685;28;20783;-68
2022/10/31 00:43:25;;;;;;;1999.90;999.90;;;10.40;99.90;;;;;;5089086;28;20438;-67
2022/10/31 00:45:53;;;;;;;1999.90;999.90;;;10.40;99.90;;;;;;5089261;28;20948;-68
2022/10/31 00:48:20;;;;;;;1999.90;999.90;;;10.40;99.90;;;;;;5089593;28;20458;-68
2022/10/31 00:50:46;;;;;;;1999.90;999.90;;;10.40;99.90;;;;;;5089491;28;20453;-68
2022/10/31 00:53:13;;;;;;;1999.90;999.90;;;10.40;99.90;;;;;;5089790;28;20445;-68
2022/10/31 00:55:40;;;;;;;1999.90;999.90;;;10.50;99.90;;;;;;5089629;28;21038;-68
2022/10/31 00:58:07;;;;;;;1999.90;999.90;;;10.40;99.90;;;;;;5090117;28;20482;-68
2022/10/31 01:00:33;;;;;;;1999.90;999.90;;;10.40;99.90;;;;;;5089850;28;20446;-68
2022/10/31 01:03:02;;;;;;;1999.90;999.90;;;10.30;99.90;;;;;;5089724;28;20456;-68
2022/10/31 01:05:28;;;;;;;1999.90;999.90;;;10.30;99.90;;;;;;5089587;28;20449;-68
2022/10/31 01:07:55;;;;;;;1999.90;999.90;;;10.30;99.90;;;;;;5090031;28;20434;-68
2022/10/31 01:10:22;;;;;;;1999.90;999.90;;;10.40;99.90;;;;;;5089730;28;20983;-68
2022/10/31 01:12:49;;;;;;;1999.90;999.90;;;10.40;99.90;;;;;;5089043;28;20457;-68
2022/10/31 01:15:19;;;;;;;1999.90;999.90;;;10.40;99.90;;;;;;5088890;28;20824;-68
2022/10/31 01:17:45;;;;;;;1999.90;999.90;;;10.40;99.90;;;;;;5090068;28;20485;-69
2022/10/31 01:20:15;;;;;;;1999.90;999.90;;;10.50;99.90;;;;;;5090069;28;20446;-68
2022/10/31 01:22:42;;;;;;;1999.90;999.90;;;10.40;99.90;;;;;;5092727;28;20457;-68
2022/10/31 01:25:10;;;;;;;1999.90;999.90;;;10.40;99.90;;;;;;5093560;28;20449;-68
2022/10/31 01:27:37;;;;;;;1999.90;999.90;;;10.40;99.90;;;;;;5093681;28;20438;-68
2022/10/31 01:30:04;;;;;;;1999.90;999.90;;;10.40;99.90;;;;;;5093867;28;20458;-68
2022/10/31 01:32:32;;;;;;;1999.90;999.90;;;10.50;99.90;;;;;;5092862;28;20987;-68
2022/10/31 01:34:58;;;;;;;1999.90;999.90;;;10.50;99.90;;;;;;5093322;28;20485;-66
2022/10/31 01:37:26;;;;;;;1999.90;999.90;;;10.50;99.90;;;;;;5093566;28;20478;-68
2022/10/31 01:39:53;;;;;;;1999.90;999.90;;;10.50;99.90;;;;;;5093575;28;20462;-68
2022/10/31 01:42:22;;;;;;;1999.90;999.90;;;10.60;99.90;;;;;;5092579;28;20450;-68
2022/10/31 01:44:56;;;;;;;1999.90;999.90;;;10.60;99.90;;;;;;5093272;28;20457;-68
2022/10/31 01:47:43;;;;;;;1999.90;999.90;;;10.60;99.90;;;;;;5093692;28;20433;-68
2022/10/31 01:50:24;;;;;;;1999.90;999.90;;;10.60;99.90;;;;;;5093403;28;20928;-68
2022/10/31 01:52:52;;;;;;;1999.90;999.90;;;10.60;99.90;;;;;;5092242;28;20445;-68
2022/10/31 01:55:24;;;;;;;1999.90;999.90;;;10.60;99.90;;;;;;5092895;28;20446;-68
2022/10/31 01:57:54;;;;;;;1999.90;999.90;;;10.60;99.90;;;;;;5093343;28;20474;-68
2022/10/31 02:00:22;;;;;;;1999.90;999.90;;;10.70;99.90;;;;;;5093686;28;20818;-68
2022/10/31 02:02:50;;;;;;;1999.90;999.90;;;10.70;99.90;;;;;;5092541;28;20446;-68
2022/10/31 02:05:19;;;;;;;1999.90;999.90;;;10.70;99.90;;;;;;5092575;28;20469;-68
2022/10/31 02:07:52;;;;;;;1999.90;999.90;;;10.70;99.90;;;;;;5093051;28;20442;-68
2022/10/31 02:10:22;;;;;;;1999.90;999.90;;;10.80;99.90;;;;;;5093008;28;20446;-68
2022/10/31 02:12:51;;;;;;;1999.90;999.90;;;10.80;99.90;;;;;;5092207;28;20453;-68
2022/10/31 02:15:18;;;;;;;1999.90;999.90;;;10.80;99.90;;;;;;5092588;28;20449;-68
2022/10/31 02:17:45;;;;;;;1999.90;999.90;;;10.80;99.90;;;;;;5092849;28;20481;-68
2022/10/31 02:20:17;;;;;;;1999.90;999.90;;;10.80;99.90;;;;;;5092995;28;20446;-68
2022/10/31 02:23:16;;;;;;;1999.90;999.90;;;10.80;99.90;;;;;;5092134;28;20438;-68
2022/10/31 02:25:59;;;;;;;1999.90;999.90;;;10.70;99.90;;;;;;5092750;28;20442;-68
2022/10/31 02:28:49;;;;;;;1999.90;999.90;;;10.70;99.90;;;;;;5092964;28;20460;-68
2022/10/31 02:31:29;;;;;;;1999.90;999.90;;;10.70;99.90;;;;;;5092516;28;20442;-68
2022/10/31 02:34:01;;;;;;;1999.90;999.90;;;10.70;99.90;;;;;;5090963;28;21335;-68
2022/10/31 02:36:35;;;;;;;1999.90;999.90;;;10.60;99.90;;;;;;5092456;28;20438;-68
2022/10/31 02:39:12;;;;;;;1999.90;999.90;;;10.60;99.90;;;;;;5092643;28;20501;-68
2022/10/31 02:41:47;;;;;;;1999.90;999.90;;;10.60;99.90;;;;;;5092123;28;20442;-68
2022/10/31 02:44:21;;;;;;;1999.90;999.90;;;10.50;99.90;;;;;;5092531;28;20442;-68
2022/10/31 02:46:53;;;;;;;1999.90;999.90;;;10.50;99.90;;;;;;5092417;28;20442;-68
2022/10/31 02:49:26;;;;;;;1999.90;999.90;;;10.50;99.90;;;;;;5092124;28;20462;-68
2022/10/31 02:51:53;;;;;;;1999.90;999.90;;;10.50;99.90;;;;;;5091575;28;20450;-68
2022/10/31 02:54:23;;;;;;;1999.90;999.90;;;10.60;99.90;;;;;;5091959;28;20445;-68
2022/10/31 02:56:51;;;;;;;1999.90;999.90;;;10.60;99.90;;;;;;5091893;28;20947;-68
2022/10/31 02:59:19;;;;;;;1999.90;999.90;;;10.50;99.90;;;;;;5091885;28;20481;-68
2022/10/31 03:02:05;;;;;;;1999.90;999.90;;;10.50;99.90;;;;;;5091002;28;20443;-68
2022/10/31 03:05:08;;;;;;;1999.90;999.90;;;10.50;99.90;;;;;;5091704;28;20473;-68
2022/10/31 03:07:42;;;;;;;1999.90;999.90;;;10.40;99.90;;;;;;5089454;28;20453;-68
2022/10/31 03:10:17;;;;;;;1999.90;999.90;;;10.30;99.90;;;;;;5092087;28;20437;-68
2022/10/31 03:12:52;;;;;;;1999.90;999.90;;;10.30;99.90;;;;;;5091069;28;20441;-68
2022/10/31 03:15:23;;;;;;;1999.90;999.90;;;10.20;99.90;;;;;;5091495;28;20440;-68
2022/10/31 03:18:00;;;;;;;1999.90;999.90;;;10.10;99.90;;;;;;5091584;28;20485;-68
2022/10/31 03:20:34;;;;;;;1999.90;999.90;;;10.10;99.90;;;;;;5091487;28;20445;-68
2022/10/31 03:23:03;;;;;;;1999.90;999.90;;;10.10;99.90;;;;;;5091278;28;20448;-68
2022/10/31 03:25:32;;;;;;;1999.90;999.90;;;10.10;99.90;;;;;;5091121;28;21146;-68
2022/10/31 03:28:02;;;;;;;1999.90;999.90;;;10.10;99.90;;;;;;5091414;28;20461;-68
2022/10/31 03:30:30;;;;;;;1999.90;999.90;;;10.10;99.90;;;;;;5091610;28;20446;-68
2022/10/31 03:33:01;;;;;;;1999.90;999.90;;;10.10;99.90;;;;;;5090684;28;20446;-68
2022/10/31 03:35:29;;;;;;;1999.90;999.90;;;10.10;99.90;;;;;;5090910;28;20461;-68
2022/10/31 03:37:57;;;;;;;1999.90;999.90;;;10.10;99.90;;;;;;5091330;28;20485;-69
2022/10/31 03:40:27;;;;;;;1999.90;999.90;;;10.10;99.90;;;;;;5091298;28;20832;-68
2022/10/31 03:42:59;;;;;;;1999.90;999.90;;;10.10;99.90;;;;;;5090461;28;20469;-68
2022/10/31 03:45:29;;;;;;;1999.90;999.90;;;10.10;99.90;;;;;;5090403;28;20450;-68
2022/10/31 03:47:58;;;;;;;1999.90;999.90;;;10.00;99.90;;;;;;5091078;28;20446;-69
2022/10/31 03:50:29;;;;;;;1999.90;999.90;;;9.90;99.90;;;;;;5091089;28;20446;-68
2022/10/31 03:52:59;;;;;;;1999.90;999.90;;;10.00;99.90;;;;;;5090146;28;20449;-68
2022/10/31 03:55:31;;;;;;;1999.90;999.90;;;10.00;99.90;;;;;;5090497;28;20474;-68
2022/10/31 03:58:02;;;;;;;1999.90;999.90;;;10.00;99.90;;;;;;5090933;28;20466;-68
2022/10/31 04:00:30;;;;;;;1999.90;999.90;;;10.00;99.90;;;;;;5091028;28;20465;-68
2022/10/31 04:03:04;;;;;;;1999.90;999.90;;;10.10;99.90;;;;;;5090038;28;20943;-68
2022/10/31 04:05:31;;;;;;;1999.90;999.90;;;10.00;99.90;;;;;;5090343;28;20957;-69
2022/10/31 04:08:00;;;;;;;1999.90;999.90;;;10.10;99.90;;;;;;5090579;28;20450;-67
2022/10/31 04:10:29;;;;;;;1999.90;999.90;;;10.10;99.90;;;;;;5090839;28;20454;-67
2022/10/31 04:13:01;;;;;;;1999.90;999.90;;;10.00;99.90;;;;;;5089798;28;20465;-67
2022/10/31 04:15:29;;;;;;;1999.90;999.90;;;9.90;99.90;;;;;;5090355;28;20450;-67
2022/10/31 04:17:59;;;;;;;1999.90;999.90;;;9.90;99.90;;;;;;5090563;28;20469;-67
2022/10/31 04:20:36;;;;;;;1999.90;999.90;;;9.90;99.90;;;;;;5090442;28;20450;-66
2022/10/31 04:23:04;;;;;;;1999.90;999.90;;;9.90;99.90;;;;;;5090342;28;20445;-67
2022/10/31 04:25:31;;;;;;;1999.90;999.90;;;9.80;99.90;;;;;;5090202;28;20450;-67
2022/10/31 04:27:57;;;;;;;1999.90;999.90;;;9.80;99.90;;;;;;5090602;28;20469;-67
2022/10/31 04:30:24;;;;;;;1999.90;999.90;;;9.80;99.90;;;;;;5090450;28;20976;-67
2022/10/31 04:32:51;;;;;;;1999.90;999.90;;;9.80;99.90;;;;;;5089654;28;20438;-67
2022/10/31 04:35:18;;;;;;;1999.90;999.90;;;9.70;99.90;;;;;;5089711;28;20468;-67
2022/10/31 04:37:46;;;;;;;1999.90;999.90;;;9.70;99.90;;;;;;5090235;28;20823;-66
2022/10/31 04:40:12;;;;;;;1999.90;999.90;;;9.70;99.90;;;;;;5090274;28;20442;-67
2022/10/31 04:42:39;;;;;;;1999.90;999.90;;;9.80;99.90;;;;;;5089764;28;20457;-67
2022/10/31 04:45:07;;;;;;;1999.90;999.90;;;9.70;99.90;;;;;;5090057;28;20438;-66
2022/10/31 04:47:34;;;;;;;1999.90;999.90;;;9.70;99.90;;;;;;5090200;28;20446;-67
2022/10/31 04:50:01;;;;;;;1999.90;999.90;;;9.50;99.90;;;;;;5089959;28;20841;-66
2022/10/31 04:52:28;;;;;;;1999.90;999.90;;;9.60;99.90;;;;;;5089361;28;20446;-67
2022/10/31 04:54:56;;;;;;;1999.90;999.90;;;9.50;99.90;;;;;;5089468;28;20453;-67
2022/10/31 04:57:23;;;;;;;1999.90;999.90;;;9.50;99.90;;;;;;5089399;28;20453;-67
2022/10/31 04:59:50;;;;;;;1999.90;999.90;;;9.50;99.90;;;;;;5089929;28;20481;-67
2022/10/31 05:02:16;;;;;;;1999.90;999.90;;;9.40;99.90;;;;;;5088865;28;20477;-67
2022/10/31 05:04:43;;;;;;;1999.90;999.90;;;9.30;99.90;;;;;;5089683;28;20823;-67
2022/10/31 05:07:10;;;;;;;1999.90;999.90;;;9.30;99.90;;;;;;5089796;28;20454;-66
2022/10/31 05:09:37;;;;;;;1999.90;999.90;;;9.30;99.90;;;;;;5089981;28;20462;-67
2022/10/31 05:12:05;;;;;;;1999.90;999.90;;;9.30;99.90;;;;;;5088960;28;20457;-67
2022/10/31 05:14:32;;;;;;;1999.90;999.90;;;9.30;99.90;;;;;;5089460;28;20815;-67
2022/10/31 05:16:58;;;;;;;1999.90;999.90;;;9.40;99.90;;;;;;5089610;28;20453;-67
2022/10/31 05:19:25;;;;;;;1999.90;999.90;;;9.40;99.90;;;;;;5089489;28;20496;-67
2022/10/31 05:21:52;;;;;;;1999.90;999.90;;;9.30;99.90;;;;;;5088942;28;20453;-67
2022/10/31 05:24:21;;;;;;;1999.90;999.90;;;9.40;99.90;;;;;;5089257;28;20464;-67
2022/10/31 05:26:48;;;;;;;1999.90;999.90;;;9.40;99.90;;;;;;5089731;28;20449;-67
2022/10/31 05:29:16;;;;;;;1999.90;999.90;;;9.40;99.90;;;;;;5089311;28;20465;-67
2022/10/31 05:31:43;;;;;;;1999.90;999.90;;;9.40;99.90;;;;;;5088682;28;20442;-67
2022/10/31 05:34:09;;;;;;;1999.90;999.90;;;9.40;99.90;;;;;;5089583;28;20449;-67
2022/10/31 05:36:36;;;;;;;1999.90;999.90;;;9.30;99.90;;;;;;5089055;28;20442;-66
2022/10/31 05:39:03;;;;;;;1999.90;999.90;;;9.30;99.90;;;;;;5089388;28;20478;-67
2022/10/31 05:41:30;;;;;;;1999.90;999.90;;;9.30;99.90;;;;;;5089150;28;20434;-67
2022/10/31 05:43:56;;;;;;;1999.90;999.90;;;9.30;99.90;;;;;;5088965;28;20450;-67
2022/10/31 05:46:24;;;;;;;1999.90;999.90;;;9.20;99.90;;;;;;5089309;28;20442;-67
2022/10/31 05:48:51;;;;;;;1999.90;999.90;;;9.30;99.90;;;;;;5089497;28;20461;-67
2022/10/31 05:51:18;;;;;;;1999.90;999.90;;;9.20;99.90;;;;;;5089035;28;20451;-67
2022/10/31 05:53:46;;;;;;;1999.90;999.90;;;9.20;99.90;;;;;;5089080;28;20452;-67
2022/10/31 05:56:13;;;;;;;1999.90;999.90;;;9.20;99.90;;;;;;5088870;28;20450;-67
2022/10/31 05:58:40;;;;;;;1999.90;999.90;;;9.10;99.90;;;;;;5089108;28;20474;-67
2022/10/31 06:01:06;;;;;;;1999.90;999.90;;;9.20;99.90;;;;;;5089028;28;20452;-66
2022/10/31 06:03:35;;;;;;;1999.90;999.90;;;9.20;99.90;;;;;;5088998;28;20449;-66
2022/10/31 06:06:01;;;;;;;1999.90;999.90;;;9.20;99.90;;;;;;5085762;28;20467;-66
2022/10/31 06:08:28;;;;;;;1999.90;999.90;;;9.20;99.90;;;;;;5089689;28;20510;-67
2022/10/31 06:10:55;;;;;;;1999.90;999.90;;;9.10;99.90;;;;;;5090239;28;20453;-67
2022/10/31 06:13:22;;;;;;;1999.90;999.90;;;9.20;99.90;;;;;;5088238;28;20480;-67
2022/10/31 06:15:49;;;;;;;1999.90;999.90;;;9.20;99.90;;;;;;5090459;28;20449;-67
2022/10/31 06:18:15;;;;;;;1999.90;999.90;;;9.20;99.90;;;;;;5090304;28;20815;-67
2022/10/31 06:20:43;;;;;;;1999.90;999.90;;;9.20;99.90;;;;;;5089192;28;21076;-67
2022/10/31 06:23:10;;;;;;;1999.90;999.90;;;9.10;99.90;;;;;;5091631;28;20965;-67
2022/10/31 06:25:37;;;;;;;1999.90;999.90;;;9.10;99.90;;;;;;5079760;28;20442;-67
2022/10/31 06:28:04;;;;;;;1999.90;999.90;;;9.20;99.90;;;;;;5085349;28;20840;-67
2022/10/31 06:30:31;;;;;;;1999.90;999.90;;;9.20;99.90;;;;;;5082193;28;20823;-67
2022/10/31 06:33:03;;;;;;;1999.90;999.90;;;9.10;99.90;;;;;;5084948;28;20469;-67
2022/10/31 06:35:30;;;;;;;1999.90;999.90;;;9.10;99.90;;;;;;5083816;28;20454;-67
2022/10/31 06:37:58;;;;;;;1999.90;999.90;;;9.10;99.90;;;;;;5087328;28;20442;-68
2022/10/31 06:40:25;;;;;;;1999.90;999.90;;;9.10;99.90;;;;;;5088861;28;21201;-68
2022/10/31 06:42:58;;;;;;;1999.90;999.90;;;9.20;99.90;;;;;;5086030;28;20442;-68
2022/10/31 06:45:24;;;;;;;1999.90;999.90;;;9.30;99.90;;;;;;5092220;28;20496;-68
2022/10/31 06:47:52;;;;;;;1999.90;999.90;;;9.30;99.90;;;;;;5092561;28;20450;-68
2022/10/31 06:50:19;;;;;;;1999.90;999.90;;;9.40;99.90;;;;;;5092379;28;20450;-68
2022/10/31 06:52:51;;;;;;;1999.90;999.90;;;9.40;99.90;;;;;;5091352;28;20445;-68
2022/10/31 06:55:20;;;;;;;1999.90;999.90;;;9.40;99.90;;;;;;5092070;28;20477;-68
2022/10/31 06:57:50;;;;;;;1999.90;999.90;;;9.50;99.90;;;;;;5092028;28;20541;-68
2022/10/31 07:00:17;;;;;;;1999.90;999.90;;;9.60;99.90;;;;;;5087344;28;20958;-67
2022/10/31 07:02:44;;;;;;;1999.90;999.90;;;9.60;99.90;;;;;;5085707;28;20447;-67
2022/10/31 07:05:11;;;;;;;1999.90;999.90;;;9.70;99.90;;;;;;5086789;28;20450;-68
2022/10/31 07:07:38;;;;;;;1999.90;999.90;;;9.80;99.90;;;;;;5089288;28;20453;-68
2022/10/31 07:10:05;;;;;;;1999.90;999.90;;;9.80;99.90;;;;;;5087444;28;20477;-67
2022/10/31 07:12:33;;;;;;;1999.90;999.90;;;9.80;99.90;;;;;;5090110;28;20442;-68
2022/10/31 07:15:00;;;;;;;1999.90;999.90;;;10.00;99.90;;;;;;5091225;28;20438;-67
2022/10/31 07:17:27;;;;;;;1999.90;999.90;;;10.10;99.90;;;;;;5091396;28;20437;-68
2022/10/31 07:19:53;;;;;;;1999.90;999.90;;;10.20;99.90;;;;;;5090141;28;20485;-68
2022/10/31 07:22:20;;;;;;;1999.90;999.90;;;10.20;99.90;;;;;;5090843;28;20445;-68
2022/10/31 07:24:47;;;;;;;1999.90;999.90;;;10.30;99.90;;;;;;5091080;28;20442;-68
2022/10/31 07:27:13;;;;;;;1999.90;999.90;;;10.30;99.90;;;;;;5088462;28;20462;-68
2022/10/31 07:29:41;;;;;;;1999.90;999.90;;;10.40;99.90;;;;;;5088432;28;20481;-67
2022/10/31 07:32:08;;;;;;;1999.90;999.90;;;10.50;99.90;;;;;;5090286;28;20476;-68
2022/10/31 07:34:35;;;;;;;1999.90;999.90;;;10.60;99.90;;;;;;5090636;28;20469;-68
2022/10/31 07:37:02;;;;;;;1999.90;999.90;;;10.60;99.90;;;;;;5090813;28;21125;-68
2022/10/31 07:39:28;;;;;;;1999.90;999.90;;;10.70;99.90;;;;;;5091068;28;20486;-68
2022/10/31 07:41:55;;;;;;;1999.90;999.90;;;10.80;99.90;;;;;;5090394;28;21093;-68
2022/10/31 07:44:22;;;;;;;1999.90;999.90;;;10.80;99.90;;;;;;5090603;28;20940;-68
2022/10/31 07:46:50;;;;;;;1999.90;999.90;;;10.90;99.90;;;;;;5090913;28;20524;-67
2022/10/31 07:49:16;;;;;;;1999.90;999.90;;;11.00;99.90;;;;;;5091317;28;20465;-66
2022/10/31 07:51:43;;;;;;;1999.90;999.90;;;11.00;99.90;;;;;;5090307;28;20811;-65
2022/10/31 07:54:10;;;;;;;1999.90;999.90;;;11.10;99.90;;;;;;5090793;28;20447;-67
2022/10/31 07:56:37;;;;;;;1999.90;999.90;;;11.20;99.90;;;;;;5078664;28;20951;-68
2022/10/31 07:59:03;;;;;;;1999.90;999.90;;;11.20;99.90;;;;;;5087322;28;20492;-68
2022/10/31 08:01:30;;;;;;;1999.90;999.90;;;11.30;99.90;;;;;;5083178;28;20449;-68
2022/10/31 08:03:58;;;;;;;1999.90;999.90;;;11.40;99.90;;;;;;5080128;28;20476;-67
2022/10/31 08:06:25;;;;;;;1999.90;999.90;;;11.50;99.90;;;;;;5077746;28;20447;-67
2022/10/31 08:08:52;;;;;;;1999.90;999.90;;;11.60;99.90;;;;;;5078763;28;20469;-68
2022/10/31 08:11:20;;;;;;;1999.90;999.90;;;11.60;99.90;;;;;;5076946;28;20450;-68
2022/10/31 08:13:47;;;;;;;1999.90;999.90;;;11.70;99.90;;;;;;5074403;28;20451;-68
2022/10/31 08:16:14;;;;;;;1999.90;999.90;;;11.80;99.90;;;;;;5080242;28;20450;-67
2022/10/31 08:18:41;;;;;;;1999.90;999.90;;;11.80;99.90;;;;;;5078122;28;20470;-68
2022/10/31 08:21:10;;;;;;;1999.90;999.90;;;12.00;99.90;;;;;;5081936;28;20830;-68
2022/10/31 08:23:37;;;;;;;1999.90;999.90;;;12.10;99.90;;;;;;5083258;28;20443;-68
2022/10/31 08:26:05;;;;;;;1999.90;999.90;;;12.20;99.90;;;;;;5084231;28;20528;-68
2022/10/31 08:28:32;;;;;;;1999.90;999.90;;;12.30;99.90;;;;;;5089227;28;20473;-68
2022/10/31 08:30:59;;;;;;;1999.90;999.90;;;12.40;99.90;;;;;;5083572;28;20447;-68
2022/10/31 08:33:26;;;;;;;1999.90;999.90;;;12.50;99.90;;;;;;5086314;28;20445;-68
2022/10/31 08:35:53;;;;;;;1999.90;999.90;;;12.60;99.90;;;;;;5086602;28;20831;-69
2022/10/31 08:38:21;;;;;;;1999.90;999.90;;;12.60;99.90;;;;;;5087187;28;20473;-68
2022/10/31 08:40:49;;;;;;;1999.90;999.90;;;12.80;99.90;;;;;;5089487;28;20482;-68
2022/10/31 08:43:18;;;;;;;1999.90;999.90;;;12.90;99.90;;;;;;5088756;28;20538;-68
2022/10/31 08:45:48;;;;;;;1999.90;999.90;;;13.00;99.90;;;;;;5086082;28;20449;-68
2022/10/31 08:48:16;;;;;;;1999.90;999.90;;;13.20;99.90;;;;;;5081747;28;20471;-68
2022/10/31 08:50:44;;;;;;;1999.90;999.90;;;13.20;99.90;;;;;;5081949;28;20438;-67
2022/10/31 08:53:13;;;;;;;1999.90;999.90;;;13.30;99.90;;;;;;5087049;28;20442;-67
2022/10/31 08:55:42;;;;;;;1999.90;999.90;;;13.30;99.90;;;;;;5083611;28;20435;-69
2022/10/31 08:58:12;;;;;;;1999.90;999.90;;;13.40;99.90;;;;;;5085420;28;20462;-69
2022/10/31 09:00:39;;;;;;;1999.90;999.90;;;13.60;99.90;;;;;;5079673;28;20485;-69
2022/10/31 09:03:09;;;;;;;1999.90;999.90;;;13.70;99.90;;;;;;5075510;28;20442;-68
2022/10/31 09:05:36;;;;;;;1999.90;999.90;;;13.80;99.90;;;;;;5073504;28;20446;-68
2022/10/31 09:08:05;;;;;;;1999.90;999.90;;;13.90;99.90;;;;;;5078853;28;20518;-68
2022/10/31 09:10:33;;;;;;;1999.90;999.90;;;14.00;99.90;;;;;;5077231;28;20440;-68
2022/10/31 09:13:06;;;;;;;1999.90;999.90;;;14.10;99.90;;;;;;5080215;28;20446;-69
2022/10/31 09:15:33;;;;;;;1999.90;999.90;;;14.30;99.90;;;;;;5081619;28;20465;-69
2022/10/31 09:18:00;;;;;;;1999.90;999.90;;;14.40;99.90;;;;;;5081110;28;20438;-69
2022/10/31 09:20:27;;;;;;;1999.90;999.90;;;14.50;99.90;;;;;;5079128;28;20481;-69
2022/10/31 09:22:57;;;;;;;1999.90;999.90;;;14.70;99.90;;;;;;5075733;28;20878;-69
2022/10/31 09:25:24;;;;;;;1999.90;999.90;;;14.80;99.90;;;;;;5076129;28;21115;-69
2022/10/31 09:27:51;;;;;;;1999.90;999.90;;;14.80;99.90;;;;;;5077672;28;20981;-68
2022/10/31 09:30:19;;;;;;;1999.90;999.90;;;15.00;99.90;;;;;;5079945;28;20457;-68
2022/10/31 09:32:46;;;;;;;1999.90;999.90;;;15.10;99.90;;;;;;5085133;28;20450;-69
2022/10/31 09:35:13;;;;;;;1999.90;999.90;;;15.30;99.90;;;;;;5084822;28;20553;-69
2022/10/31 09:37:39;;;;;;;1999.90;999.90;;;15.50;99.90;;;;;;5082536;28;20943;-68
2022/10/31 09:40:07;;;;;;;1999.90;999.90;;;15.70;99.90;;;;;;5083887;28;20488;-69
2022/10/31 09:42:44;;;;;;;1999.90;999.90;;;15.80;99.90;;;;;;5082266;28;20833;-69
2022/10/31 09:45:18;;;;;;;1999.90;999.90;;;15.90;99.90;;;;;;5086559;28;20442;-70
2022/10/31 09:48:02;;;;;;;1999.90;999.90;;;15.90;99.90;;;;;;5079174;28;20450;-69
2022/10/31 09:50:35;;;;;;;1999.90;999.90;;;15.90;99.90;;;;;;5082010;28;20442;-70
2022/10/31 09:53:09;;;;;;;1999.90;999.90;;;16.00;99.90;;;;;;5082572;28;20454;-69
2022/10/31 09:55:39;;;;;;;1999.90;999.90;;;16.00;99.90;;;;;;5080361;28;21223;-70
2022/10/31 09:58:09;;;;;;;1999.90;999.90;;;16.00;99.90;;;;;;5085022;28;20475;-70
2022/10/31 10:00:36;;;;;;;1999.90;999.90;;;16.00;99.90;;;;;;5080330;28;20478;-68
2022/10/31 10:03:12;;;;;;;1999.90;999.90;;;16.10;99.90;;;;;;5090280;28;20446;-68
2022/10/31 10:05:44;;;;;;;1999.90;999.90;;;16.20;99.90;;;;;;5085862;28;20441;-67
2022/10/31 10:08:17;;;;;;;1999.90;999.90;;;16.30;99.90;;;;;;5089430;28;20482;-68
2022/10/31 10:10:50;;;;;;;1999.90;999.90;;;16.40;99.90;;;;;;5086601;28;20434;-68
2022/10/31 10:13:39;;;;;;;1999.90;999.90;;;16.60;99.90;;;;;;5090251;28;20442;-68
2022/10/31 10:16:25;;;;;;;1999.90;999.90;;;16.70;99.90;;;;;;5089897;28;20433;-69
2022/10/31 10:19:04;;;;;;;1999.90;999.90;;;16.90;99.90;;;;;;5078013;28;20471;-70
2022/10/31 10:21:44;;;;;;;1999.90;999.90;;;17.00;99.90;;;;;;5081440;28;20481;-68
2022/10/31 10:24:25;;;;;;;1999.90;999.90;;;17.10;99.90;;;;;;5088230;28;20461;-66
2022/10/31 10:26:59;;;;;;;1999.90;999.90;;;17.00;99.90;;;;;;5088106;28;20449;-69
2022/10/31 10:29:33;;;;;;;1999.90;999.90;;;17.10;99.90;;;;;;5091003;28;20456;-69
2022/10/31 10:32:06;;;;;;;1999.90;999.90;;;17.30;99.90;;;;;;5091086;28;20446;-69
2022/10/31 10:34:38;;;;;;;1999.90;999.90;;;17.50;99.90;;;;;;5090956;28;20465;-69
2022/10/31 10:37:11;;;;;;;1999.90;999.90;;;17.60;99.90;;;;;;5091564;28;20453;-68
2022/10/31 10:39:42;;;;;;;1999.90;999.90;;;17.80;99.90;;;;;;5090281;28;20461;-67
2022/10/31 10:47:44;;;;;;;1999.90;999.90;;;18.60;99.90;;;;;;5083495;28;20472;-70
2022/10/31 10:50:18;;;;;;;1999.90;999.90;;;18.90;99.90;;;;;;5088769;28;20467;-69
2022/10/31 10:52:52;;;;;;;1999.90;999.90;;;19.00;99.90;;;;;;5089495;28;20442;-69
2022/10/31 10:55:29;;;;;;;1999.90;999.90;;;19.20;99.90;;;;;;5088696;28;20503;-69
2022/10/31 10:57:59;;;;;;;1999.90;999.90;;;19.20;99.90;;;;;;5086622;28;20452;-69
2022/10/31 11:00:28;;;;;;;1999.90;999.90;;;19.30;99.90;;;;;;5090189;28;20474;-69
2022/10/31 11:02:55;;;;;;;1999.90;999.90;;;18.90;99.90;;;;;;5088701;28;20495;-68
2022/10/31 11:05:28;;;;;;;1999.90;999.90;;;18.90;99.90;;;;;;5088349;28;20529;-69
2022/10/31 11:07:55;;;;;;;1999.90;999.90;;;18.60;99.90;;;;;;5090314;28;20446;-69
2022/10/31 11:10:22;;;;;;;1999.90;999.90;;;18.40;99.90;;;;;;5085420;28;20455;-68
2022/10/31 11:13:18;;;;;;;1999.90;999.90;;;18.30;99.90;;;;;;5089472;28;20458;-68
2022/10/31 11:15:54;;;;;;;1999.90;999.90;;;18.20;99.90;;;;;;5077878;28;20451;-67
2022/10/31 11:18:24;;;;;;;1999.90;999.90;;;17.90;99.90;;;;;;5078718;28;20473;-68
2022/10/31 11:20:55;;;;;;;1999.90;999.90;;;17.80;99.90;;;;;;5077572;28;20606;-68
2022/10/31 11:23:23;;;;;;;1999.90;999.90;;;18.10;99.90;;;;;;5080897;28;20453;-68
2022/10/31 11:25:55;;;;;;;1999.90;999.90;;;18.40;99.90;;;;;;5080444;28;20520;-68
2022/10/31 11:28:23;;;;;;;1999.90;999.90;;;18.60;99.90;;;;;;5080269;28;20478;-68
2022/10/31 11:30:53;;;;;;;1999.90;999.90;;;18.90;99.90;;;;;;5087366;28;20539;-69
2022/10/31 11:33:27;;;;;;;1999.90;999.90;;;19.00;99.90;;;;;;5086647;28;20438;-71
2022/10/31 11:35:55;;;;;;;1999.90;999.90;;;19.40;99.90;;;;;;5084614;28;20453;-69
2022/10/31 11:38:25;;;;;;;1999.90;999.90;;;19.60;99.90;;;;;;5087315;28;20481;-69
2022/10/31 11:40:55;;;;;;;1999.90;999.90;;;19.70;99.90;;;;;;5082081;28;20762;-70
2022/10/31 11:43:22;;;;;;;1999.90;999.90;;;20.00;99.90;;;;;;5080805;28;20956;-69
2022/10/31 11:45:49;;;;;;;1999.90;999.90;;;20.20;99.90;;;;;;5086201;28;20986;-68
2022/10/31 11:48:19;;;;;;;1999.90;999.90;;;20.40;99.90;;;;;;5085842;28;20470;-71
2022/10/31 11:50:51;;;;;;;1999.90;999.90;;;20.50;99.90;;;;;;5083875;28;20446;-70
2022/10/31 11:53:21;;;;;;;1999.90;999.90;;;20.60;99.90;;;;;;5078611;28;20461;-69
2022/10/31 11:56:00;;;;;;;1999.90;999.90;;;20.50;99.90;;;;;;5080812;28;20454;-66
2022/10/31 11:58:27;;;;;;;1999.90;999.90;;;20.50;99.90;;;;;;5082770;28;20473;-66
2022/10/31 12:00:55;;;;;;;1999.90;999.90;;;20.10;99.90;;;;;;5081369;28;21518;-65
2022/10/31 12:03:34;;;;;;;1999.90;999.90;;;19.70;99.90;;;;;;5087048;28;20438;-66
2022/10/31 12:06:05;;;;;;;1999.90;999.90;;;19.70;99.90;;;;;;5083029;28;20456;-65
2022/10/31 12:08:36;;;;;;;1999.90;999.90;;;19.70;99.90;;;;;;5087239;28;20477;-66
2022/10/31 12:11:09;;;;;;;1999.90;999.90;;;19.60;99.90;;;;;;5087400;28;20453;-67
2022/10/31 12:13:41;;;;;;;1999.90;999.90;;;19.60;99.90;;;;;;5080411;28;20465;-67
2022/10/31 12:16:17;;;;;;;1999.90;999.90;;;19.80;99.90;;;;;;5078228;28;20453;-65
2022/10/31 12:18:57;;;;;;;1999.90;999.90;;;20.00;99.90;;;;;;5080388;28;20665;-66